Weather at Gammelsdorf Glider Field

Public forecast

Using degrees Celsius for public forecast. Weather courtesy of forecast.io.

Closest aviation weather report (METAR) to Gammelsdorf Glider Field

Closest report is Munich Airport, 14.1 nm (26.1 km) SSW.

2024/04/13 12:20 (retrieved 26 minutes ago)

EDDM 131220Z AUTO 12004KT 080V210 CAVOK 23/10 Q1028 TEMPO 26005KT

Closest aviation forecast (TAF) to Gammelsdorf Glider Field

Closest forecast is Munich Airport, 14.1 nm (26.1 km) SSW.

2024/04/13 12:27 (retrieved 19 minutes ago)

TAF EDDM 131100Z 1312/1418 VRB02KT CAVOK TEMPO 1312/1316 26005KT BECMG 1404/1406 25008KT BECMG 1416/1418 VRB02KT